createdAt,value
2023-04-16T00:00:00.271Z,111.76
2023-04-16T00:01:00.358Z,113.54
2023-04-16T00:02:00.461Z,110.18
2023-04-16T00:03:00.682Z,110.93
2023-04-16T00:04:00.726Z,111.75
2023-04-16T00:05:00.683Z,113.53
2023-04-16T00:06:00.569Z,115.40
2023-04-16T00:07:00.577Z,113.18
2023-04-16T00:08:00.611Z,112.45
2023-04-16T00:09:00.637Z,112.25
2023-04-16T00:10:00.726Z,110.01
2023-04-16T00:11:00.755Z,110.34
2023-04-16T00:12:00.801Z,112.16
2023-04-16T00:13:00.828Z,117.35
2023-04-16T00:14:00.852Z,114.48
2023-04-16T00:15:00.931Z,110.36
2023-04-16T00:16:01.001Z,112.74
2023-04-16T00:17:01.078Z,111.88
2023-04-16T00:18:01.090Z,111.53
2023-04-16T00:19:01.106Z,110.86
2023-04-16T00:20:01.144Z,113.11
2023-04-16T00:21:01.144Z,109.74
2023-04-16T00:22:01.209Z,109.61
2023-04-16T00:23:01.233Z,108.90
2023-04-16T00:24:01.267Z,106.61
2023-04-16T00:25:01.302Z,107.40
2023-04-16T00:26:01.362Z,110.03
2023-04-16T00:27:01.425Z,111.28
2023-04-16T00:28:01.476Z,108.95
2023-04-16T00:29:01.526Z,113.59
2023-04-16T00:30:01.553Z,112.34
2023-04-16T00:31:01.617Z,111.89
2023-04-16T00:32:01.669Z,111.06
2023-04-16T00:33:01.749Z,111.12
2023-04-16T00:34:01.712Z,113.64
2023-04-16T00:35:01.754Z,114.50
2023-04-16T00:36:01.785Z,115.10
2023-04-16T00:37:01.853Z,113.81
2023-04-16T00:38:01.902Z,113.58
2023-04-16T00:39:02.021Z,110.38
2023-04-16T00:40:02.004Z,110.24
2023-04-16T00:41:02.012Z,110.73
2023-04-16T00:42:02.076Z,111.70
2023-04-16T00:43:02.133Z,113.17
2023-04-16T00:44:02.244Z,116.42
2023-04-16T00:45:02.242Z,112.08
2023-04-16T00:46:02.286Z,104.96
2023-04-16T00:47:02.362Z,102.64
2023-04-16T00:48:02.409Z,105.68
2023-04-16T00:49:02.426Z,104.25
2023-04-16T00:50:02.490Z,108.53
2023-04-16T00:51:02.483Z,105.95
2023-04-16T00:52:02.514Z,113.19
2023-04-16T00:53:02.679Z,111.08
2023-04-16T00:54:02.722Z,112.89
2023-04-16T00:55:02.692Z,112.84
2023-04-16T00:56:02.732Z,112.01
2023-04-16T00:57:02.785Z,114.94
2023-04-16T00:58:02.785Z,109.18
2023-04-16T00:59:02.858Z,106.12
2023-04-16T01:00:02.909Z,103.81
2023-04-16T01:01:02.841Z,105.83
2023-04-16T01:02:03.044Z,106.39
2023-04-16T01:03:03.173Z,104.59
2023-04-16T01:04:03.032Z,102.82
2023-04-16T01:05:02.981Z,102.86
2023-04-16T01:06:03.053Z,103.74
2023-04-16T01:07:03.041Z,107.38
2023-04-16T01:08:03.128Z,109.38
2023-04-16T01:09:03.168Z,108.92
2023-04-16T01:10:03.251Z,110.01
2023-04-16T01:11:03.232Z,106.17
2023-04-16T01:12:03.255Z,106.56
2023-04-16T01:13:03.272Z,105.19
2023-04-16T01:14:03.311Z,108.87
2023-04-16T01:15:03.417Z,108.40
2023-04-16T01:16:03.457Z,107.40
2023-04-16T01:17:03.457Z,109.06
2023-04-16T01:18:03.562Z,106.52
2023-04-16T01:19:03.559Z,107.99
2023-04-16T01:20:03.635Z,104.42
2023-04-16T01:21:03.690Z,109.91
2023-04-16T01:22:03.722Z,111.31
2023-04-16T01:23:03.796Z,111.10
2023-04-16T01:24:03.830Z,108.44
2023-04-16T01:25:03.848Z,111.92
2023-04-16T01:26:03.891Z,109.00
2023-04-16T01:27:03.865Z,110.94
2023-04-16T01:28:03.929Z,110.66
2023-04-16T01:29:03.979Z,108.63
2023-04-16T01:30:03.997Z,111.72
2023-04-16T01:31:04.110Z,112.42
2023-04-16T01:32:04.054Z,105.18
2023-04-16T01:33:04.119Z,102.21
2023-04-16T01:34:04.172Z,105.21
2023-04-16T01:35:04.235Z,101.07
2023-04-16T01:36:04.229Z,104.45
2023-04-16T01:37:04.265Z,110.86
2023-04-16T01:38:04.317Z,107.63
2023-04-16T01:39:04.345Z,112.04
2023-04-16T01:40:04.394Z,109.47
2023-04-16T01:41:04.424Z,110.45
2023-04-16T01:42:04.509Z,110.83
2023-04-16T01:43:04.545Z,110.11
2023-04-16T01:44:04.578Z,111.19
2023-04-16T01:45:04.616Z,111.96
2023-04-16T01:46:04.639Z,106.25
2023-04-16T01:47:04.866Z,106.44
2023-04-16T01:48:04.750Z,105.70
2023-04-16T01:49:04.778Z,108.26
2023-04-16T01:50:04.829Z,110.01
2023-04-16T01:51:04.844Z,111.70
2023-04-16T01:52:04.926Z,116.64
2023-04-16T01:53:05.032Z,116.80
2023-04-16T01:54:05.044Z,115.72
2023-04-16T01:55:05.052Z,116.26
2023-04-16T01:56:05.118Z,118.72
2023-04-16T01:57:05.144Z,117.29
2023-04-16T01:58:05.153Z,120.05
2023-04-16T01:59:05.214Z,124.33
2023-04-16T02:00:05.272Z,125.68
2023-04-16T02:01:05.337Z,127.51
2023-04-16T02:02:05.384Z,125.72
2023-04-16T02:03:05.487Z,130.34
2023-04-16T02:04:05.506Z,126.65
2023-04-16T02:05:05.484Z,125.71
2023-04-16T02:06:05.520Z,123.99
2023-04-16T02:07:05.520Z,120.43
2023-04-16T02:08:05.581Z,119.68
2023-04-16T02:09:05.655Z,120.89
2023-04-16T02:10:05.684Z,127.38
2023-04-16T02:11:05.761Z,125.46
2023-04-16T02:12:05.768Z,126.07
2023-04-16T02:13:05.806Z,127.01
2023-04-16T02:14:05.848Z,129.98
2023-04-16T02:15:05.886Z,129.36
2023-04-16T02:16:05.982Z,131.02
2023-04-16T02:17:05.997Z,131.24
2023-04-16T02:18:06.043Z,130.20
2023-04-16T02:19:06.068Z,132.55
2023-04-16T02:20:06.120Z,131.86
2023-04-16T02:21:06.127Z,131.49
2023-04-16T02:22:06.191Z,128.17
2023-04-16T02:23:06.258Z,128.90
2023-04-16T02:24:06.273Z,128.00
2023-04-16T02:25:06.274Z,132.86
2023-04-16T02:26:06.322Z,132.50
2023-04-16T02:27:06.391Z,128.98
2023-04-16T02:28:06.404Z,130.29
2023-04-16T02:29:06.570Z,135.66
2023-04-16T02:30:06.510Z,131.24
2023-04-16T02:31:06.575Z,130.99
2023-04-16T02:32:06.628Z,131.48
2023-04-16T02:33:06.665Z,133.20
2023-04-16T02:34:06.679Z,130.23
2023-04-16T02:35:06.697Z,131.33
2023-04-16T02:36:06.687Z,131.07
2023-04-16T02:37:06.797Z,134.39
2023-04-16T02:38:06.835Z,134.21
2023-04-16T02:39:06.925Z,129.90
2023-04-16T02:40:06.870Z,133.06
2023-04-16T02:41:06.934Z,131.92
2023-04-16T02:42:06.953Z,131.60
2023-04-16T02:43:07.009Z,131.75
2023-04-16T02:44:07.079Z,130.29
2023-04-16T02:45:07.109Z,131.84
2023-04-16T02:46:07.176Z,127.99
2023-04-16T02:47:07.180Z,128.33
2023-04-16T02:48:07.184Z,124.61
2023-04-16T02:49:07.289Z,125.63
2023-04-16T02:50:07.286Z,126.66
2023-04-16T02:51:07.318Z,129.77
2023-04-16T02:52:07.357Z,131.26
2023-04-16T02:53:07.453Z,128.12
2023-04-16T02:54:07.483Z,126.40
2023-04-16T02:55:07.544Z,127.43
2023-04-16T02:56:07.597Z,130.58
2023-04-16T02:57:07.646Z,129.68
2023-04-16T02:58:07.684Z,130.09
2023-04-16T02:59:07.961Z,129.87
2023-04-16T03:00:07.750Z,130.70
2023-04-16T03:01:07.859Z,134.07
2023-04-16T03:02:07.892Z,133.56
2023-04-16T03:03:07.953Z,135.40
2023-04-16T03:04:07.980Z,131.92
2023-04-16T03:05:08.016Z,133.86
2023-04-16T03:06:08.034Z,135.35
2023-04-16T03:07:08.074Z,134.66
2023-04-16T03:08:08.084Z,135.12
2023-04-16T03:09:08.356Z,134.72
2023-04-16T03:10:08.197Z,135.17
2023-04-16T03:11:08.257Z,136.04
2023-04-16T03:12:08.451Z,138.97
2023-04-16T03:13:08.346Z,141.59
2023-04-16T03:14:08.386Z,142.43
2023-04-16T03:15:08.387Z,145.68
2023-04-16T03:16:08.521Z,141.91
2023-04-16T03:17:08.506Z,144.79
2023-04-16T03:18:08.544Z,142.28
2023-04-16T03:19:08.730Z,144.95
2023-04-16T03:20:08.642Z,144.65
2023-04-16T03:21:08.688Z,141.15
2023-04-16T03:22:08.706Z,138.35
2023-04-16T03:23:08.726Z,139.50
2023-04-16T03:24:08.817Z,138.88
2023-04-16T03:25:08.852Z,133.96
2023-04-16T03:26:08.895Z,135.84
2023-04-16T03:27:08.930Z,138.69
2023-04-16T03:28:08.972Z,139.77
2023-04-16T03:29:09.274Z,135.89
2023-04-16T03:30:09.098Z,139.84
2023-04-16T03:31:09.200Z,138.39
2023-04-16T03:32:09.175Z,134.15
2023-04-16T03:33:09.229Z,139.65
2023-04-16T03:34:09.295Z,140.80
2023-04-16T03:35:09.296Z,139.09
2023-04-16T03:36:09.346Z,140.59
2023-04-16T03:37:09.423Z,135.71
2023-04-16T03:38:09.465Z,136.24
2023-04-16T03:39:09.678Z,136.97
2023-04-16T03:40:09.538Z,136.41
2023-04-16T03:41:09.597Z,137.49
2023-04-16T03:42:09.599Z,137.26
2023-04-16T03:43:09.646Z,140.92
2023-04-16T03:44:09.688Z,136.91
2023-04-16T03:45:09.704Z,135.23
2023-04-16T03:46:09.830Z,134.25
2023-04-16T03:47:09.831Z,136.42
2023-04-16T03:48:09.858Z,138.12
2023-04-16T03:49:10.005Z,140.00
2023-04-16T03:50:09.925Z,140.76
2023-04-16T03:51:09.986Z,145.90
2023-04-16T03:52:10.024Z,143.68
2023-04-16T03:53:10.050Z,140.44
2023-04-16T03:54:10.087Z,146.27
2023-04-16T03:55:10.157Z,144.97
2023-04-16T03:56:10.190Z,144.30
2023-04-16T03:57:10.282Z,144.08
2023-04-16T03:58:10.258Z,145.02
2023-04-16T03:59:10.474Z,144.96
2023-04-16T04:00:10.365Z,144.22
2023-04-16T04:01:10.390Z,140.89
2023-04-16T04:02:10.551Z,144.29
2023-04-16T04:03:10.636Z,140.21
2023-04-16T04:04:10.626Z,143.08
2023-04-16T04:05:10.657Z,142.66
2023-04-16T04:06:10.635Z,143.40
2023-04-16T04:07:10.709Z,145.95
2023-04-16T04:08:10.756Z,142.62
2023-04-16T04:09:10.922Z,144.22
2023-04-16T04:10:10.803Z,144.92
2023-04-16T04:11:10.852Z,145.16
2023-04-16T04:12:10.932Z,146.08
2023-04-16T04:13:10.945Z,143.50
2023-04-16T04:14:10.993Z,149.68
2023-04-16T04:15:11.071Z,143.68
2023-04-16T04:16:11.131Z,142.16
2023-04-16T04:17:11.139Z,144.88
2023-04-16T04:18:11.222Z,150.77
2023-04-16T04:19:11.546Z,151.91
2023-04-16T04:20:11.364Z,150.92
2023-04-16T04:21:11.371Z,150.31
2023-04-16T04:22:11.401Z,149.42
2023-04-16T04:23:11.443Z,150.42
2023-04-16T04:24:11.467Z,150.97
2023-04-16T04:25:11.558Z,153.45
2023-04-16T04:26:11.633Z,151.95
2023-04-16T04:27:11.666Z,152.70
2023-04-16T04:28:11.717Z,145.38
2023-04-16T04:29:11.937Z,145.82
2023-04-16T04:30:11.850Z,146.33
2023-04-16T04:31:11.923Z,148.24
2023-04-16T04:32:11.955Z,148.56
2023-04-16T04:33:11.985Z,145.05
2023-04-16T04:34:12.019Z,146.95
2023-04-16T04:35:12.113Z,145.90
2023-04-16T04:36:12.114Z,147.19
2023-04-16T04:37:12.151Z,144.54
2023-04-16T04:38:13.650Z,146.15
2023-04-16T04:39:12.216Z,151.22
2023-04-16T04:40:12.254Z,153.95
2023-04-16T04:41:12.257Z,148.62
2023-04-16T04:42:12.233Z,148.63
2023-04-16T04:43:12.257Z,145.37
2023-04-16T04:44:12.255Z,145.90
2023-04-16T04:45:12.258Z,147.65
2023-04-16T04:46:12.284Z,147.50
2023-04-16T04:47:12.238Z,152.39
2023-04-16T04:48:12.260Z,151.73
2023-04-16T04:49:12.353Z,149.78
2023-04-16T04:50:12.289Z,152.12
2023-04-16T04:51:12.295Z,149.89
2023-04-16T04:52:12.259Z,144.10
2023-04-16T04:53:12.279Z,143.58
2023-04-16T04:54:12.267Z,145.83
2023-04-16T04:55:12.280Z,144.89
2023-04-16T04:56:13.240Z,146.92
2023-04-16T04:57:12.283Z,150.04
2023-04-16T04:58:12.270Z,143.08
2023-04-16T04:59:12.251Z,140.07
2023-04-16T05:00:12.264Z,138.16
2023-04-16T05:01:12.292Z,141.76
2023-04-16T05:02:12.277Z,142.92
2023-04-16T05:03:12.349Z,140.76
2023-04-16T05:04:12.273Z,139.54
2023-04-16T05:05:12.281Z,140.74
2023-04-16T05:06:12.276Z,137.82
2023-04-16T05:07:12.229Z,134.07
2023-04-16T05:08:12.264Z,138.98
2023-04-16T05:09:12.264Z,135.30
2023-04-16T05:10:12.288Z,140.31
2023-04-16T05:11:12.273Z,138.59
2023-04-16T05:12:12.228Z,139.71
2023-04-16T05:13:12.225Z,142.79
2023-04-16T05:14:12.241Z,143.86
2023-04-16T05:15:12.241Z,141.17
2023-04-16T05:16:12.261Z,141.31
2023-04-16T05:17:12.254Z,140.80
2023-04-16T05:18:12.279Z,137.56
2023-04-16T05:19:12.298Z,135.20
2023-04-16T05:20:12.244Z,133.48
2023-04-16T05:21:12.227Z,140.27
2023-04-16T05:22:12.340Z,138.81
2023-04-16T05:23:12.347Z,139.59
2023-04-16T05:24:14.400Z,140.08
2023-04-16T05:25:12.580Z,135.54
2023-04-16T05:26:12.737Z,138.53
2023-04-16T05:27:12.660Z,140.96
2023-04-16T05:28:12.693Z,139.52
2023-04-16T05:29:12.735Z,134.94
2023-04-16T05:30:12.747Z,138.11
2023-04-16T05:31:12.850Z,137.62
2023-04-16T05:32:12.865Z,134.91
2023-04-16T05:33:12.916Z,137.17
2023-04-16T05:34:12.907Z,140.56
2023-04-16T05:35:13.904Z,137.13
2023-04-16T05:36:13.037Z,138.24
2023-04-16T05:37:13.068Z,139.42
2023-04-16T05:38:13.091Z,135.38
2023-04-16T05:39:13.211Z,137.18
2023-04-16T05:40:13.268Z,137.30
2023-04-16T05:41:13.223Z,133.24
2023-04-16T05:42:13.280Z,134.97
2023-04-16T05:43:13.319Z,132.10
2023-04-16T05:44:13.321Z,132.23
2023-04-16T05:45:13.376Z,134.40
2023-04-16T05:46:13.448Z,136.78
2023-04-16T05:47:13.440Z,139.31
2023-04-16T05:48:13.549Z,139.08
2023-04-16T05:49:13.556Z,140.74
2023-04-16T05:50:13.620Z,142.18
2023-04-16T05:51:13.684Z,142.58
2023-04-16T05:52:13.661Z,140.55
2023-04-16T05:53:13.709Z,139.33
2023-04-16T05:54:13.762Z,138.78
2023-04-16T05:55:13.802Z,143.19
2023-04-16T05:56:13.908Z,137.80
2023-04-16T05:57:13.924Z,138.00
2023-04-16T05:58:13.984Z,138.52
2023-04-16T05:59:14.000Z,143.62
2023-04-16T06:00:14.064Z,141.12
2023-04-16T06:01:14.080Z,140.32
2023-04-16T06:02:14.300Z,141.50
2023-04-16T06:03:14.419Z,140.14
2023-04-16T06:04:14.333Z,138.43
2023-04-16T06:05:14.361Z,135.18
2023-04-16T06:06:14.333Z,136.00
2023-04-16T06:07:14.380Z,133.52
2023-04-16T06:08:14.408Z,130.71
2023-04-16T06:09:14.483Z,138.40
2023-04-16T06:10:14.539Z,139.36
2023-04-16T06:11:14.588Z,136.36
2023-04-16T06:12:14.618Z,135.13
2023-04-16T06:13:14.644Z,136.67
2023-04-16T06:14:14.678Z,132.18
2023-04-16T06:15:14.740Z,135.84
2023-04-16T06:16:14.808Z,137.65
2023-04-16T06:17:14.852Z,140.33
2023-04-16T06:18:14.956Z,141.79
2023-04-16T06:19:14.959Z,139.58
2023-04-16T06:20:14.979Z,137.26
2023-04-16T06:21:15.029Z,134.63
2023-04-16T06:22:15.095Z,135.31
2023-04-16T06:23:15.181Z,134.55
2023-04-16T06:24:15.204Z,133.02
2023-04-16T06:25:16.925Z,135.50
2023-04-16T06:26:15.242Z,139.11
2023-04-16T06:27:15.266Z,138.45
2023-04-16T06:28:15.236Z,137.00
2023-04-16T06:29:15.226Z,135.65
2023-04-16T06:30:15.260Z,135.81
2023-04-16T06:31:15.244Z,134.24
2023-04-16T06:32:15.224Z,131.84
2023-04-16T06:33:15.250Z,132.76
2023-04-16T06:34:15.247Z,130.16
2023-04-16T06:35:15.311Z,130.10
2023-04-16T06:36:15.227Z,131.37
2023-04-16T06:37:15.246Z,133.04
2023-04-16T06:38:15.279Z,133.93
2023-04-16T06:39:15.266Z,130.47
2023-04-16T06:40:15.277Z,130.98
2023-04-16T06:41:15.242Z,130.56
2023-04-16T06:42:15.249Z,130.15
2023-04-16T06:43:15.212Z,134.81
2023-04-16T06:44:15.222Z,131.76
2023-04-16T06:45:15.255Z,130.10
2023-04-16T06:46:15.278Z,126.93
2023-04-16T06:47:15.218Z,126.41
2023-04-16T06:48:15.193Z,127.00
2023-04-16T06:49:15.207Z,132.78
2023-04-16T06:50:15.181Z,131.72
2023-04-16T06:51:15.252Z,133.32
2023-04-16T06:52:15.230Z,135.58
2023-04-16T06:53:15.231Z,137.84
2023-04-16T06:54:15.267Z,132.40
2023-04-16T06:55:15.245Z,130.01
2023-04-16T06:56:15.247Z,133.12
2023-04-16T06:57:15.228Z,129.61
2023-04-16T06:58:15.212Z,129.44
2023-04-16T06:59:15.225Z,133.07
2023-04-16T07:00:15.224Z,133.45
2023-04-16T07:01:15.261Z,134.14
2023-04-16T07:02:15.282Z,137.31
2023-04-16T07:03:15.368Z,134.32
2023-04-16T07:04:15.225Z,133.66
2023-04-16T07:05:15.228Z,132.43
2023-04-16T07:06:15.217Z,134.83
2023-04-16T07:07:15.231Z,135.18
2023-04-16T07:08:15.198Z,132.05
2023-04-16T07:09:15.253Z,136.89
2023-04-16T07:10:15.214Z,136.20
2023-04-16T07:11:15.235Z,135.22
2023-04-16T07:12:15.224Z,133.11
2023-04-16T07:13:15.232Z,135.21
2023-04-16T07:14:15.216Z,136.39
2023-04-16T07:15:15.208Z,134.93
2023-04-16T07:16:15.273Z,131.98
2023-04-16T07:17:15.197Z,133.95
2023-04-16T07:18:15.172Z,132.76
2023-04-16T07:19:15.200Z,134.54
2023-04-16T07:20:15.295Z,133.86
2023-04-16T07:21:15.326Z,133.22
2023-04-16T07:22:15.332Z,129.32
2023-04-16T07:23:15.360Z,130.55
2023-04-16T07:24:15.460Z,132.50
2023-04-16T07:25:15.521Z,132.71
2023-04-16T07:26:15.525Z,128.42
2023-04-16T07:27:15.586Z,131.06
2023-04-16T07:28:15.621Z,129.40
2023-04-16T07:29:15.633Z,127.19
2023-04-16T07:30:15.726Z,129.96
2023-04-16T07:31:15.727Z,130.60
2023-04-16T07:32:16.079Z,130.30
2023-04-16T07:33:15.866Z,128.67
2023-04-16T07:34:15.884Z,132.56
2023-04-16T07:35:15.885Z,127.51
2023-04-16T07:36:15.928Z,126.46
2023-04-16T07:37:15.982Z,129.29
2023-04-16T07:38:16.008Z,128.22
2023-04-16T07:39:16.046Z,128.20
2023-04-16T07:40:16.075Z,133.06
2023-04-16T07:41:16.096Z,130.64
2023-04-16T07:42:16.139Z,131.01
2023-04-16T07:43:16.171Z,127.12
2023-04-16T07:44:16.217Z,130.05
2023-04-16T07:45:16.267Z,132.07
2023-04-16T07:46:16.378Z,126.89
2023-04-16T07:47:16.354Z,128.78
2023-04-16T07:48:16.412Z,127.20
2023-04-16T07:49:16.409Z,127.47
2023-04-16T07:50:16.456Z,126.19
2023-04-16T07:51:16.474Z,122.46
2023-04-16T07:52:16.550Z,126.30
2023-04-16T07:53:16.588Z,126.16
2023-04-16T07:54:16.590Z,128.21
2023-04-16T07:55:16.662Z,129.89
2023-04-16T07:56:16.685Z,127.00
2023-04-16T07:57:16.755Z,127.94
2023-04-16T07:58:16.761Z,125.20
2023-04-16T07:59:23.070Z,123.29
2023-04-16T08:00:17.819Z,123.47
2023-04-16T08:01:16.786Z,124.47
2023-04-16T08:02:16.905Z,125.05
2023-04-16T08:03:16.945Z,125.13
2023-04-16T08:04:16.856Z,125.19
2023-04-16T08:05:16.857Z,126.03
2023-04-16T08:06:16.767Z,127.36
2023-04-16T08:07:16.809Z,124.90
2023-04-16T08:08:16.764Z,124.01
2023-04-16T08:09:16.745Z,122.96
2023-04-16T08:10:16.764Z,122.95
2023-04-16T08:11:16.757Z,125.10
2023-04-16T08:12:16.814Z,119.95
2023-04-16T08:13:16.857Z,122.65
2023-04-16T08:14:16.911Z,124.22
2023-04-16T08:15:16.911Z,120.68
2023-04-16T08:16:16.972Z,123.79
2023-04-16T08:17:17.041Z,126.40
2023-04-16T08:18:17.083Z,127.88
2023-04-16T08:19:17.109Z,122.29
2023-04-16T08:20:19.261Z,121.88
2023-04-16T08:21:17.204Z,121.50
2023-04-16T08:22:17.253Z,123.29
2023-04-16T08:23:17.265Z,120.12
2023-04-16T08:24:17.319Z,124.00
2023-04-16T08:25:17.370Z,122.67
2023-04-16T08:26:17.432Z,118.94
2023-04-16T08:27:19.088Z,115.99
2023-04-16T08:28:17.445Z,117.91
2023-04-16T08:29:17.456Z,116.39
2023-04-16T08:30:17.459Z,109.58
2023-04-16T08:31:17.474Z,115.25
2023-04-16T08:32:17.410Z,117.21
2023-04-16T08:33:17.427Z,117.91
2023-04-16T08:34:17.443Z,114.88
2023-04-16T08:35:17.493Z,116.88
2023-04-16T08:36:17.395Z,115.63
2023-04-16T08:37:17.422Z,117.93
2023-04-16T08:38:17.448Z,118.93
2023-04-16T08:39:17.384Z,120.04
2023-04-16T08:40:17.409Z,119.70
2023-04-16T08:41:17.399Z,117.49
2023-04-16T08:42:17.407Z,119.81
2023-04-16T08:43:17.372Z,119.33
2023-04-16T08:44:17.377Z,117.61
2023-04-16T08:45:17.384Z,116.42
2023-04-16T08:46:17.445Z,114.46
2023-04-16T08:47:17.373Z,119.24
2023-04-16T08:48:17.390Z,119.12
2023-04-16T08:49:17.385Z,120.85
2023-04-16T08:50:17.398Z,117.80
2023-04-16T08:51:17.356Z,116.04
2023-04-16T08:52:17.354Z,116.65
2023-04-16T08:53:17.347Z,116.44
2023-04-16T08:54:17.320Z,115.06
2023-04-16T08:55:17.400Z,116.65
2023-04-16T08:56:17.326Z,114.06
2023-04-16T08:57:17.296Z,114.59
2023-04-16T08:58:17.298Z,115.16
2023-04-16T08:59:17.314Z,111.27
2023-04-16T09:00:17.291Z,111.21
2023-04-16T09:01:17.275Z,116.75
2023-04-16T09:02:17.974Z,113.05
2023-04-16T09:03:17.377Z,116.64
2023-04-16T09:04:17.328Z,116.46
2023-04-16T09:05:17.265Z,116.44
2023-04-16T09:06:17.261Z,115.26
2023-04-16T09:07:17.247Z,114.96
2023-04-16T09:08:17.216Z,114.50
2023-04-16T09:09:17.210Z,113.06
2023-04-16T09:10:17.231Z,111.97
2023-04-16T09:11:17.208Z,111.79
2023-04-16T09:12:17.207Z,112.66
2023-04-16T09:13:17.206Z,114.40
2023-04-16T09:14:17.240Z,113.74
2023-04-16T09:15:17.232Z,113.38
2023-04-16T09:16:17.224Z,113.17
2023-04-16T09:17:17.218Z,108.43
2023-04-16T09:18:17.214Z,111.25
2023-04-16T09:19:17.260Z,108.45
2023-04-16T09:20:17.309Z,109.69
2023-04-16T09:21:17.361Z,107.26
2023-04-16T09:22:17.392Z,106.80
2023-04-16T09:23:17.452Z,106.07
2023-04-16T09:24:17.523Z,102.35
2023-04-16T09:25:17.578Z,106.43
2023-04-16T09:26:17.564Z,102.94
2023-04-16T09:27:18.410Z,103.01
2023-04-16T09:28:17.701Z,101.05
2023-04-16T09:29:17.732Z,103.38
2023-04-16T09:30:17.774Z,103.96
2023-04-16T09:31:17.934Z,104.34
2023-04-16T09:32:17.982Z,104.86
2023-04-16T09:33:17.899Z,107.01
2023-04-16T09:34:17.968Z,107.63
2023-04-16T09:35:18.081Z,107.64
2023-04-16T09:36:18.052Z,105.32
2023-04-16T09:37:18.097Z,106.32
2023-04-16T09:38:18.134Z,109.79
2023-04-16T09:39:18.196Z,108.82
2023-04-16T09:40:18.259Z,106.73
2023-04-16T09:41:18.299Z,107.17
2023-04-16T09:42:18.340Z,106.62
2023-04-16T09:43:18.450Z,107.11
2023-04-16T09:44:18.440Z,107.28
2023-04-16T09:45:18.450Z,106.22
2023-04-16T09:46:18.614Z,103.58
2023-04-16T09:47:18.586Z,107.03
2023-04-16T09:48:18.589Z,96.22
2023-04-16T09:49:18.661Z,98.67
2023-04-16T09:50:19.017Z,94.83
2023-04-16T09:51:18.676Z,92.27
2023-04-16T09:52:18.752Z,97.74
2023-04-16T09:53:18.761Z,91.06
2023-04-16T09:54:18.781Z,95.68
2023-04-16T09:55:18.865Z,101.29
2023-04-16T09:56:18.884Z,97.21
2023-04-16T09:57:18.944Z,99.37
2023-04-16T09:58:18.963Z,96.33
2023-04-16T09:59:19.058Z,98.53
2023-04-16T10:00:19.241Z,104.89
2023-04-16T10:01:19.131Z,106.78
2023-04-16T10:02:19.119Z,99.95
2023-04-16T10:03:19.272Z,97.09
2023-04-16T10:04:19.295Z,91.80
2023-04-16T10:05:19.300Z,92.46
2023-04-16T10:06:19.308Z,94.55
2023-04-16T10:07:19.331Z,97.04
2023-04-16T10:08:19.331Z,97.73
2023-04-16T10:09:19.410Z,91.92
2023-04-16T10:10:19.458Z,87.18
2023-04-16T10:11:19.497Z,84.59
2023-04-16T10:12:19.522Z,88.74
2023-04-16T10:13:19.537Z,84.00
2023-04-16T10:14:19.588Z,85.29
2023-04-16T10:15:19.615Z,79.56
2023-04-16T10:16:19.757Z,81.84
2023-04-16T10:17:19.677Z,80.67
2023-04-16T10:18:19.763Z,80.74
2023-04-16T10:19:19.782Z,84.56
2023-04-16T10:20:19.849Z,82.13
2023-04-16T10:21:19.878Z,80.71
2023-04-16T10:22:19.887Z,78.49
2023-04-16T10:23:19.975Z,79.80
2023-04-16T10:24:20.019Z,83.77
2023-04-16T10:25:20.070Z,78.60
2023-04-16T10:26:20.091Z,74.10
2023-04-16T10:27:20.157Z,75.01
2023-04-16T10:28:20.164Z,72.32
2023-04-16T10:29:20.240Z,70.45
2023-04-16T10:30:20.320Z,65.64
2023-04-16T10:31:20.392Z,64.84
2023-04-16T10:32:20.392Z,65.41
2023-04-16T10:33:20.441Z,71.09
2023-04-16T10:34:20.594Z,71.44
2023-04-16T10:35:20.570Z,72.70
2023-04-16T10:36:20.614Z,72.31
2023-04-16T10:37:20.641Z,68.97
2023-04-16T10:38:20.696Z,68.09
2023-04-16T10:39:20.710Z,69.69
2023-04-16T10:40:20.792Z,71.78
2023-04-16T10:41:20.859Z,70.22
2023-04-16T10:42:20.878Z,74.12
2023-04-16T10:43:20.958Z,79.02
2023-04-16T10:44:20.977Z,77.99
2023-04-16T10:45:21.048Z,73.52
2023-04-16T10:46:21.106Z,74.23
2023-04-16T10:47:21.145Z,75.69
2023-04-16T10:48:21.179Z,79.86
2023-04-16T10:49:21.208Z,78.91
2023-04-16T10:50:21.287Z,76.07
2023-04-16T10:51:21.347Z,77.88
2023-04-16T10:52:21.407Z,77.07
2023-04-16T10:53:21.415Z,76.71
2023-04-16T10:54:21.473Z,78.23
2023-04-16T10:55:21.525Z,78.45
2023-04-16T10:56:21.557Z,75.49
2023-04-16T10:57:21.609Z,70.96
2023-04-16T10:58:21.664Z,74.63
2023-04-16T10:59:21.679Z,69.70
2023-04-16T11:00:21.771Z,73.34
2023-04-16T11:01:21.845Z,76.58
2023-04-16T11:02:22.071Z,75.63
2023-04-16T11:03:21.928Z,74.64
2023-04-16T11:04:22.369Z,73.66
2023-04-16T11:05:21.978Z,72.26
2023-04-16T11:06:22.065Z,72.82
2023-04-16T11:07:22.118Z,72.57
2023-04-16T11:08:22.497Z,65.97
2023-04-16T11:09:22.195Z,69.84
2023-04-16T11:10:22.310Z,69.23
2023-04-16T11:11:22.286Z,69.41
2023-04-16T11:12:22.355Z,64.30
2023-04-16T11:13:22.424Z,65.09
2023-04-16T11:14:22.415Z,60.58
2023-04-16T11:15:22.504Z,63.07
2023-04-16T11:16:22.562Z,67.66
2023-04-16T11:17:22.583Z,71.49
2023-04-16T11:18:22.625Z,73.10
2023-04-16T11:19:22.642Z,70.03
2023-04-16T11:20:22.873Z,72.31
2023-04-16T11:21:22.760Z,73.43
2023-04-16T11:22:22.797Z,72.34
2023-04-16T11:23:22.833Z,68.67
2023-04-16T11:24:24.103Z,72.29
2023-04-16T11:25:23.004Z,65.63
2023-04-16T11:26:22.856Z,72.15
2023-04-16T11:27:22.895Z,74.74
2023-04-16T11:28:22.876Z,77.14
2023-04-16T11:29:22.881Z,78.49
2023-04-16T11:30:22.868Z,74.42
2023-04-16T11:31:22.964Z,74.07
2023-04-16T11:32:22.944Z,78.10
2023-04-16T11:33:22.851Z,74.58
2023-04-16T11:34:22.868Z,75.12
2023-04-16T11:35:22.849Z,77.88
2023-04-16T11:36:23.797Z,72.35
2023-04-16T11:37:23.070Z,72.73
2023-04-16T11:38:23.119Z,73.72
2023-04-16T11:39:23.154Z,74.04
2023-04-16T11:40:23.226Z,78.11
2023-04-16T11:41:23.217Z,83.73
2023-04-16T11:42:23.376Z,80.53
2023-04-16T11:43:23.328Z,84.07
2023-04-16T11:44:23.417Z,82.25
2023-04-16T11:45:23.460Z,78.79
2023-04-16T11:46:27.695Z,86.81
2023-04-16T11:47:23.741Z,86.83
2023-04-16T11:48:23.528Z,87.51
2023-04-16T11:49:23.486Z,87.42
2023-04-16T11:50:23.521Z,84.89
2023-04-16T11:51:23.868Z,84.16
2023-04-16T11:52:23.481Z,86.34
2023-04-16T11:53:23.503Z,85.89
2023-04-16T11:54:23.454Z,85.37
2023-04-16T11:55:23.500Z,80.74
2023-04-16T11:56:23.471Z,85.66
2023-04-16T11:57:23.495Z,85.58
2023-04-16T11:58:23.500Z,80.20
2023-04-16T11:59:23.468Z,79.79
2023-04-16T12:00:24.615Z,80.11
2023-04-16T12:01:23.468Z,79.59
2023-04-16T12:02:23.580Z,81.03
2023-04-16T12:03:23.606Z,81.50
2023-04-16T12:04:23.494Z,78.97
2023-04-16T12:05:23.409Z,84.80
2023-04-16T12:06:24.495Z,79.48
2023-04-16T12:07:23.423Z,75.15
2023-04-16T12:08:23.513Z,73.23
2023-04-16T12:09:23.506Z,70.24
2023-04-16T12:10:23.559Z,75.67
2023-04-16T12:11:23.609Z,76.60
2023-04-16T12:12:23.649Z,75.51
2023-04-16T12:13:23.699Z,78.43
2023-04-16T12:14:23.765Z,76.26
2023-04-16T12:15:23.777Z,81.48
2023-04-16T12:16:23.940Z,79.03
2023-04-16T12:17:23.926Z,85.75
2023-04-16T12:18:23.906Z,80.03
2023-04-16T12:19:23.954Z,75.61
2023-04-16T12:20:24.005Z,73.70
2023-04-16T12:21:24.033Z,77.30
2023-04-16T12:22:24.071Z,71.91
2023-04-16T12:23:24.126Z,78.94
2023-04-16T12:24:24.192Z,80.70
2023-04-16T12:25:24.187Z,78.26
2023-04-16T12:26:24.236Z,73.86
2023-04-16T12:27:24.268Z,70.62
2023-04-16T12:28:24.325Z,71.42
2023-04-16T12:29:24.381Z,73.76
2023-04-16T12:30:24.948Z,75.29
2023-04-16T12:31:24.482Z,76.83
2023-04-16T12:32:24.555Z,77.74
2023-04-16T12:33:24.559Z,78.60